Time;durP1;ratioP1;P1;durP2;ratioP2;P2;SDS_P1;SDS_P2;PMS_P1;PMS_P2;Temp;Humidity;BMP_temperature;BMP_pressure;BME280_temperature;BME280_humidity;BME280_pressure;Samples;Min_cycle;Max_cycle;Signal;HPM_P1;HPM_P2
2021/01/14 00:00:32;;;;;;;18.10;12.63;;;4.00;99.90;;;;;;5003387;28;20133;-74
2021/01/14 00:02:58;;;;;;;;;;;4.00;99.90;;;;;;5008502;28;20022;-71
2021/01/14 00:05:24;;;;;;;17.30;11.18;;;4.00;99.90;;;;;;5011268;28;20381;-70
2021/01/14 00:07:49;;;;;;;15.30;10.75;;;4.00;99.90;;;;;;5005444;28;20041;-71
2021/01/14 00:10:16;;;;;;;13.57;10.05;;;4.00;99.90;;;;;;5009160;28;20022;-71
2021/01/14 00:12:43;;;;;;;12.88;10.10;;;4.00;99.90;;;;;;5001812;28;20418;-73
2021/01/14 00:15:10;;;;;;;13.55;9.90;;;4.00;99.90;;;;;;5009645;28;20445;-72
2021/01/14 00:17:36;;;;;;;17.77;10.05;;;4.00;99.90;;;;;;5021575;28;20029;-73
2021/01/14 00:20:11;;;;;;;15.30;10.25;;;4.10;99.90;;;;;;5010917;28;20026;-73
2021/01/14 00:22:37;;;;;;;15.00;8.80;;;4.10;99.90;;;;;;5007430;28;20540;-71
2021/01/14 00:25:04;;;;;;;16.73;9.63;;;4.10;99.90;;;;;;5006975;28;20457;-71
2021/01/14 00:27:30;;;;;;;13.98;9.52;;;4.10;99.90;;;;;;5011672;28;20061;-73
2021/01/14 00:29:56;;;;;;;14.88;8.73;;;3.90;99.90;;;;;;5010828;28;20022;-71
2021/01/14 00:32:22;;;;;;;14.98;9.40;;;3.90;99.90;;;;;;5009796;28;20044;-71
2021/01/14 00:34:48;;;;;;;18.58;9.68;;;3.90;99.90;;;;;;5003971;28;20037;-71
2021/01/14 00:39:59;;;;;;;14.35;9.85;;;3.80;99.90;;;;;;5009839;28;20065;-73
2021/01/14 00:42:25;;;;;;;12.25;9.00;;;3.80;99.90;;;;;;5006309;28;20057;-71
2021/01/14 00:44:51;;;;;;;13.18;9.35;;;3.80;99.90;;;;;;5010992;28;20343;-71
2021/01/14 00:47:16;;;;;;;11.25;8.38;;;3.90;99.90;;;;;;5004650;28;20030;-72
2021/01/14 00:49:42;;;;;;;14.00;9.15;;;3.90;99.90;;;;;;5008813;28;20030;-73
2021/01/14 00:52:12;;;;;;;11.82;8.85;;;3.90;99.90;;;;;;5005468;28;20034;-70
2021/01/14 00:54:39;;;;;;;14.38;9.23;;;3.90;99.90;;;;;;5003792;28;20060;-71
2021/01/14 00:57:09;;;;;;;13.65;8.35;;;4.00;99.90;;;;;;5007477;28;20030;-70
2021/01/14 00:59:38;;;;;;;11.15;8.27;;;4.10;99.90;;;;;;5008575;28;20402;-70
2021/01/14 01:02:05;;;;;;;12.18;8.00;;;4.10;99.90;;;;;;5009135;28;20461;-71
2021/01/14 01:04:31;;;;;;;10.88;8.55;;;4.20;99.90;;;;;;5002737;28;20066;-71
2021/01/14 01:06:57;;;;;;;12.77;8.07;;;4.20;99.90;;;;;;5007285;28;20568;-71
2021/01/14 01:09:23;;;;;;;11.07;6.88;;;4.20;99.90;;;;;;5000311;28;20029;-74
2021/01/14 01:11:49;;;;;;;12.30;7.57;;;4.20;99.90;;;;;;5007726;28;20030;-71
2021/01/14 01:14:15;;;;;;;14.82;7.55;;;4.20;99.90;;;;;;5005992;28;20477;-73
2021/01/14 01:16:41;;;;;;;11.88;8.00;;;4.30;99.90;;;;;;5002147;28;20541;-72
2021/01/14 01:19:07;;;;;;;12.05;7.72;;;4.40;99.90;;;;;;5007051;28;20026;-71
2021/01/14 01:21:33;;;;;;;13.20;7.72;;;4.40;99.90;;;;;;5006865;28;20497;-71
2021/01/14 01:23:59;;;;;;;12.05;8.05;;;4.40;99.90;;;;;;5011086;28;21978;-71
2021/01/14 01:26:25;;;;;;;12.52;7.68;;;4.40;99.90;;;;;;5013922;28;20429;-71
2021/01/14 01:28:51;;;;;;;11.07;6.72;;;4.50;99.90;;;;;;5004351;28;20029;-72
2021/01/14 01:31:17;;;;;;;12.98;7.53;;;4.50;99.90;;;;;;5000937;28;20478;-72
2021/01/14 01:33:43;;;;;;;12.85;8.50;;;4.40;99.90;;;;;;5009514;28;20052;-72
2021/01/14 01:36:12;;;;;;;11.20;7.70;;;4.30;99.90;;;;;;5010624;28;20503;-73
2021/01/14 01:38:38;;;;;;;10.45;7.15;;;4.30;99.90;;;;;;5009594;28;20041;-72
2021/01/14 01:41:08;;;;;;;11.82;7.47;;;4.30;99.90;;;;;;5011474;28;20025;-72
2021/01/14 01:43:34;;;;;;;11.20;7.35;;;4.30;99.90;;;;;;5011802;28;20473;-73
2021/01/14 01:46:01;;;;;;;18.13;7.20;;;4.30;99.90;;;;;;5010782;28;20493;-72
2021/01/14 01:48:28;;;;;;;13.45;7.60;;;4.40;99.90;;;;;;5010448;28;20021;-73
2021/01/14 01:51:00;;;;;;;11.77;7.88;;;4.30;99.90;;;;;;5009473;28;20030;-73
2021/01/14 01:53:30;;;;;;;13.55;7.32;;;4.40;99.90;;;;;;5008521;28;20120;-72
2021/01/14 01:55:56;;;;;;;9.73;6.57;;;4.40;99.90;;;;;;5007760;28;20054;-73
2021/01/14 01:58:22;;;;;;;14.43;8.05;;;4.50;99.90;;;;;;5014834;28;20033;-73
2021/01/14 02:00:49;;;;;;;9.30;6.63;;;4.50;99.90;;;;;;5011037;28;20037;-72
2021/01/14 02:03:16;;;;;;;13.63;7.35;;;4.50;99.90;;;;;;5010348;28;20026;-72
2021/01/14 02:05:42;;;;;;;8.85;6.07;;;4.60;99.90;;;;;;5010405;28;20030;-73
2021/01/14 02:08:25;;;;;;;10.95;6.85;;;4.60;99.90;;;;;;5009884;28;20038;-72
2021/01/14 02:10:58;;;;;;;9.73;7.00;;;4.70;99.90;;;;;;5007459;28;21455;-72
2021/01/14 02:13:49;;;;;;;6.82;5.13;;;4.60;99.90;;;;;;5012195;28;20571;-72
2021/01/14 02:16:15;;;;;;;8.30;6.63;;;4.60;99.90;;;;;;5008802;28;20056;-72
2021/01/14 02:18:45;;;;;;;10.10;5.72;;;4.60;99.90;;;;;;5008730;28;20046;-73
2021/01/14 02:21:15;;;;;;;8.80;5.20;;;4.60;99.90;;;;;;5007542;28;20129;-72
2021/01/14 02:24:02;;;;;;;6.63;5.13;;;4.60;99.90;;;;;;5011778;28;20053;-72
2021/01/14 02:26:29;;;;;;;6.60;4.95;;;4.60;99.90;;;;;;5008991;28;20022;-72
2021/01/14 02:29:00;;;;;;;7.05;4.43;;;4.60;99.90;;;;;;5009659;28;20052;-72
2021/01/14 02:31:26;;;;;;;6.78;4.32;;;4.70;99.90;;;;;;5006730;28;20067;-73
2021/01/14 02:33:54;;;;;;;5.07;4.38;;;4.70;99.90;;;;;;5010090;28;20156;-72
2021/01/14 02:36:27;;;;;;;5.65;3.75;;;4.70;99.90;;;;;;5008580;28;20030;-72
2021/01/14 02:39:02;;;;;;;6.55;3.95;;;4.70;99.90;;;;;;5012104;28;20026;-72
2021/01/14 02:41:28;;;;;;;5.38;4.22;;;4.70;99.90;;;;;;5007110;28;20433;-72
2021/01/14 02:43:54;;;;;;;5.60;3.85;;;4.70;99.90;;;;;;5008564;28;20021;-72
2021/01/14 02:46:21;;;;;;;7.40;4.68;;;4.70;99.90;;;;;;5006094;28;20486;-72
2021/01/14 02:49:12;;;;;;;5.70;4.18;;;4.70;99.90;;;;;;5006946;28;20032;-72
2021/01/14 02:51:47;;;;;;;8.25;5.35;;;4.80;99.90;;;;;;5008632;28;20505;-72
2021/01/14 02:54:15;;;;;;;7.25;4.47;;;4.80;99.90;;;;;;5006723;28;20041;-72
2021/01/14 02:56:41;;;;;;;6.90;4.82;;;4.80;99.90;;;;;;5010324;28;20121;-73
2021/01/14 02:59:09;;;;;;;6.75;4.95;;;4.80;99.90;;;;;;5009545;28;20555;-73
2021/01/14 03:01:35;;;;;;;6.20;4.40;;;4.90;99.90;;;;;;5009134;28;20117;-73
2021/01/14 03:04:01;;;;;;;6.60;4.93;;;4.80;99.90;;;;;;5005470;28;20304;-73
2021/01/14 03:06:27;;;;;;;7.55;5.50;;;4.90;99.90;;;;;;5007745;28;20101;-73
2021/01/14 03:08:53;;;;;;;9.43;5.18;;;4.80;99.90;;;;;;5006504;28;20057;-73
2021/01/14 03:11:26;;;;;;;7.32;4.82;;;4.90;99.90;;;;;;5006045;28;20037;-73
2021/01/14 03:13:52;;;;;;;6.55;4.70;;;4.90;99.90;;;;;;5006633;28;20079;-73
2021/01/14 03:16:18;;;;;;;8.77;5.88;;;5.00;99.90;;;;;;5005196;28;20040;-73
2021/01/14 03:18:44;;;;;;;5.43;4.47;;;4.90;99.90;;;;;;5008048;28;20025;-73
2021/01/14 03:21:10;;;;;;;6.65;5.30;;;4.90;99.90;;;;;;5005298;28;20065;-74
2021/01/14 03:23:36;;;;;;;8.07;5.07;;;4.80;99.90;;;;;;5005747;28;20052;-73
2021/01/14 03:26:04;;;;;;;5.13;4.63;;;4.80;99.90;;;;;;4994827;28;20037;-73
2021/01/14 03:28:30;;;;;;;6.68;5.38;;;4.90;99.90;;;;;;5024765;28;20115;-73
2021/01/14 03:30:56;;;;;;;7.43;5.43;;;4.90;99.90;;;;;;5006228;28;20652;-73
2021/01/14 03:33:21;;;;;;;7.63;5.22;;;4.90;99.90;;;;;;5007524;28;20401;-73
2021/01/14 03:35:47;;;;;;;6.10;4.85;;;4.90;99.90;;;;;;5010096;28;20026;-73
2021/01/14 03:38:13;;;;;;;6.78;4.65;;;4.80;99.90;;;;;;5012944;28;20026;-73
2021/01/14 03:40:39;;;;;;;7.25;5.22;;;4.80;99.90;;;;;;5008816;28;20072;-73
2021/01/14 03:43:05;;;;;;;8.20;4.72;;;4.80;99.90;;;;;;5016625;28;20506;-73
2021/01/14 03:45:31;;;;;;;7.75;5.88;;;4.80;99.90;;;;;;5007037;28;20021;-73
2021/01/14 03:47:59;;;;;;;8.45;4.97;;;4.80;99.90;;;;;;5003576;28;20157;-73
2021/01/14 03:50:24;;;;;;;6.60;5.45;;;4.80;99.90;;;;;;5006617;28;20022;-73
2021/01/14 03:52:50;;;;;;;7.65;5.55;;;4.90;99.90;;;;;;5009139;28;20032;-73
2021/01/14 03:55:16;;;;;;;5.35;4.82;;;5.00;99.90;;;;;;5011017;28;20084;-73
2021/01/14 03:57:49;;;;;;;7.22;5.80;;;5.20;99.90;;;;;;5006103;28;20103;-73
2021/01/14 04:00:16;;;;;;;9.75;6.65;;;5.20;99.90;;;;;;5005064;28;20432;-73
2021/01/14 04:02:41;;;;;;;12.07;6.10;;;5.30;99.90;;;;;;5003119;28;21320;-73
2021/01/14 04:05:09;;;;;;;10.25;5.95;;;5.40;99.90;;;;;;5010307;28;20022;-72
2021/01/14 04:07:34;;;;;;;11.48;6.47;;;5.50;99.90;;;;;;5014404;28;20029;-73
2021/01/14 04:10:03;;;;;;;6.20;5.57;;;5.50;99.90;;;;;;5010689;28;20633;-73
2021/01/14 04:12:29;;;;;;;7.35;5.78;;;5.50;99.90;;;;;;5006820;28;20037;-73
2021/01/14 04:14:58;;;;;;;10.63;6.78;;;5.50;99.90;;;;;;5007775;28;20055;-72
2021/01/14 04:17:28;;;;;;;12.15;6.88;;;5.60;99.90;;;;;;5006703;28;20034;-72
2021/01/14 04:19:54;;;;;;;10.73;6.85;;;5.60;99.90;;;;;;5006552;28;20490;-73
2021/01/14 04:22:20;;;;;;;9.02;6.55;;;5.70;99.90;;;;;;5004715;28;20161;-72
2021/01/14 04:24:46;;;;;;;7.95;7.15;;;5.70;99.90;;;;;;5008860;28;20482;-73
2021/01/14 04:27:15;;;;;;;9.85;7.10;;;5.80;99.90;;;;;;5006898;28;20041;-72
2021/01/14 04:29:41;;;;;;;10.93;7.45;;;5.80;99.90;;;;;;5000043;28;20398;-73
2021/01/14 04:32:06;;;;;;;9.02;7.10;;;5.90;99.90;;;;;;5007371;28;20034;-72
2021/01/14 04:34:32;;;;;;;9.68;8.40;;;6.00;99.90;;;;;;5004883;28;20113;-72
2021/01/14 04:37:02;;;;;;;12.32;8.02;;;6.00;99.90;;;;;;5007365;28;20030;-73
2021/01/14 04:39:29;;;;;;;10.73;9.10;;;6.00;99.90;;;;;;5005509;28;20501;-73
2021/01/14 04:41:57;;;;;;;15.75;8.95;;;6.10;99.90;;;;;;5009441;28;20549;-73
2021/01/14 04:44:25;;;;;;;11.60;8.85;;;6.10;99.90;;;;;;5004329;28;20389;-73
2021/01/14 04:47:15;;;;;;;13.13;9.40;;;6.00;99.90;;;;;;5006146;28;20485;-73
2021/01/14 04:49:42;;;;;;;13.57;9.10;;;6.00;99.90;;;;;;5008433;28;20038;-73
2021/01/14 04:52:17;;;;;;;11.50;10.15;;;5.90;99.90;;;;;;5005334;28;20489;-72
2021/01/14 04:54:44;;;;;;;13.43;10.20;;;6.00;99.90;;;;;;5002273;28;20033;-73
2021/01/14 04:57:19;;;;;;;15.48;11.40;;;6.00;99.90;;;;;;5006850;28;20026;-73
2021/01/14 04:59:53;;;;;;;15.82;12.23;;;6.00;99.90;;;;;;5007466;28;20688;-73
2021/01/14 05:02:24;;;;;;;16.13;12.07;;;6.00;99.90;;;;;;5009453;28;20433;-73
2021/01/14 05:04:54;;;;;;;14.95;11.55;;;6.00;99.90;;;;;;5014363;28;20014;-73
2021/01/14 05:07:31;;;;;;;15.73;13.15;;;6.10;99.90;;;;;;5001444;28;20030;-72
2021/01/14 05:10:05;;;;;;;17.88;13.82;;;6.10;99.90;;;;;;5004812;28;20412;-73
2021/01/14 05:12:32;;;;;;;21.85;13.65;;;6.10;99.90;;;;;;5011543;28;20500;-73
2021/01/14 05:15:02;;;;;;;17.30;12.73;;;6.00;99.90;;;;;;5010319;28;20026;-73
2021/01/14 05:17:28;;;;;;;23.20;13.43;;;5.90;99.90;;;;;;5002022;28;20031;-73
2021/01/14 05:19:55;;;;;;;16.00;14.30;;;5.90;99.90;;;;;;5009998;28;20085;-73
2021/01/14 05:22:24;;;;;;;21.60;16.25;;;5.80;99.90;;;;;;5008910;28;20490;-73
2021/01/14 05:25:05;;;;;;;18.50;14.77;;;6.00;99.90;;;;;;5014400;28;20424;-73
2021/01/14 05:27:31;;;;;;;21.60;15.90;;;6.00;99.90;;;;;;5009056;28;20022;-73
2021/01/14 05:30:08;;;;;;;20.85;16.95;;;6.10;99.90;;;;;;5009438;28;20021;-73
2021/01/14 05:32:43;;;;;;;24.08;18.80;;;6.10;99.90;;;;;;5011045;28;20037;-73
2021/01/14 05:35:12;;;;;;;19.40;16.40;;;6.20;99.90;;;;;;5004624;28;20048;-73
2021/01/14 05:37:42;;;;;;;21.25;17.33;;;6.30;99.90;;;;;;5007743;28;20642;-73
2021/01/14 05:40:12;;;;;;;24.23;19.70;;;6.30;99.90;;;;;;5002141;28;20088;-73
2021/01/14 05:42:41;;;;;;;20.73;17.92;;;6.40;99.90;;;;;;5009388;28;20035;-73
2021/01/14 05:45:22;;;;;;;20.92;18.55;;;6.40;99.90;;;;;;5010372;28;20026;-73
2021/01/14 05:47:47;;;;;;;22.38;18.02;;;6.40;99.90;;;;;;5010567;28;20084;-73
2021/01/14 05:50:13;;;;;;;26.23;19.27;;;6.40;99.90;;;;;;5009235;28;20022;-73
2021/01/14 05:52:48;;;;;;;22.60;17.75;;;6.40;99.90;;;;;;5011943;28;20053;-73
2021/01/14 05:55:25;;;;;;;25.42;17.48;;;6.40;99.90;;;;;;4999864;28;20486;-73
2021/01/14 05:58:04;;;;;;;28.45;19.60;;;6.50;99.90;;;;;;5012514;28;20101;-73
2021/01/14 06:00:36;;;;;;;25.05;20.40;;;6.40;99.90;;;;;;5010591;28;20072;-73
2021/01/14 06:03:27;;;;;;;26.65;22.10;;;6.40;99.90;;;;;;5010988;28;20030;-73
2021/01/14 06:05:57;;;;;;;26.88;21.88;;;6.40;99.90;;;;;;5009858;28;20030;-73
2021/01/14 06:08:25;;;;;;;27.50;21.30;;;6.40;99.90;;;;;;5011495;28;20037;-73
2021/01/14 06:10:51;;;;;;;26.42;20.42;;;6.20;99.90;;;;;;5005364;28;20077;-73
2021/01/14 06:13:18;;;;;;;31.30;21.73;;;6.20;99.90;;;;;;5013156;28;20029;-73
2021/01/14 06:15:44;;;;;;;30.90;23.30;;;6.00;99.90;;;;;;5009456;28;20057;-74
2021/01/14 06:18:12;;;;;;;28.10;23.42;;;6.00;99.90;;;;;;5013834;28;20462;-73
2021/01/14 06:20:51;;;;;;;32.40;25.00;;;5.90;99.90;;;;;;5006285;28;21525;-73
2021/01/14 06:23:22;;;;;;;34.40;22.67;;;5.80;99.90;;;;;;5011475;28;20029;-74
2021/01/14 06:25:52;;;;;;;27.70;20.15;;;5.90;99.90;;;;;;5003477;28;20050;-73
2021/01/14 06:28:21;;;;;;;31.45;22.83;;;5.90;99.90;;;;;;5007071;28;20018;-74
2021/01/14 06:30:57;;;;;;;30.48;22.27;;;5.90;99.90;;;;;;5002966;28;20087;-73
2021/01/14 06:33:25;;;;;;;27.95;22.02;;;5.90;99.90;;;;;;5008712;28;20402;-75
2021/01/14 06:36:03;;;;;;;26.35;21.35;;;5.90;99.90;;;;;;5006149;28;20030;-74
2021/01/14 06:38:41;;;;;;;28.88;22.80;;;5.90;99.90;;;;;;5005132;28;20026;-73
2021/01/14 06:41:17;;;;;;;39.03;34.28;;;5.90;99.90;;;;;;5007190;28;20033;-73
2021/01/14 06:43:44;;;;;;;43.75;31.45;;;6.00;99.90;;;;;;5005883;28;20037;-75
2021/01/14 06:46:28;;;;;;;37.25;29.55;;;6.20;99.90;;;;;;5007777;28;20032;-73
2021/01/14 06:52:24;;;;;;;;;;;;;;;;;;;;;
2021/01/14 06:54:52;;;;;;;40.45;30.33;;;6.30;99.90;;;;;;5004820;28;20117;-75
2021/01/14 06:57:24;;;;;;;42.90;30.40;;;6.40;99.90;;;;;;4998568;28;20034;-73
2021/01/14 06:59:53;;;;;;;36.50;30.20;;;6.30;99.90;;;;;;5010568;28;20397;-74
2021/01/14 07:02:35;;;;;;;39.95;30.83;;;6.20;99.90;;;;;;5008470;28;20142;-74
2021/01/14 07:05:04;;;;;;;38.63;30.10;;;6.10;99.90;;;;;;5009610;28;20026;-73
2021/01/14 07:07:36;;;;;;;44.83;32.15;;;6.10;99.90;;;;;;5001376;28;20030;-67
2021/01/14 07:10:04;;;;;;;38.28;30.08;;;6.10;99.90;;;;;;5000830;28;20030;-67
2021/01/14 07:12:33;;;;;;;42.70;30.48;;;6.10;99.90;;;;;;5001275;28;20409;-67
2021/01/14 07:15:17;;;;;;;34.30;25.00;;;6.20;99.90;;;;;;4997933;28;20031;-67
2021/01/14 07:17:45;;;;;;;39.38;23.65;;;6.30;99.90;;;;;;5005207;28;20061;-68
2021/01/14 07:20:16;;;;;;;27.88;20.00;;;6.50;99.90;;;;;;5008817;28;20030;-66
2021/01/14 07:22:59;;;;;;;29.98;18.83;;;6.60;99.90;;;;;;5003433;28;20037;-66
2021/01/14 07:25:26;;;;;;;28.10;19.63;;;6.60;99.90;;;;;;5001594;28;20449;-68
2021/01/14 07:27:52;;;;;;;26.15;18.20;;;6.80;99.90;;;;;;5006637;28;20447;-68
2021/01/14 07:30:20;;;;;;;22.63;15.10;;;6.80;99.90;;;;;;5006399;28;20022;-68
2021/01/14 07:33:06;;;;;;;18.77;11.48;;;7.00;99.90;;;;;;5009679;28;20033;-72
2021/01/14 07:35:41;;;;;;;14.50;9.90;;;7.20;99.90;;;;;;5003484;28;20030;-74
2021/01/14 07:38:12;;;;;;;14.30;5.90;;;7.30;99.90;;;;;;5003113;28;20033;-74
2021/01/14 07:40:40;;;;;;;11.77;5.15;;;7.30;99.90;;;;;;5002945;28;20038;-72
2021/01/14 07:43:11;;;;;;;8.45;4.70;;;7.30;99.90;;;;;;5008824;28;20041;-73
2021/01/14 07:45:37;;;;;;;7.95;4.72;;;7.20;99.90;;;;;;5007911;28;20413;-74
2021/01/14 07:48:24;;;;;;;18.23;7.55;;;7.20;99.90;;;;;;5012556;28;20022;-74
2021/01/14 07:50:59;;;;;;;9.07;6.07;;;7.20;99.90;;;;;;5010745;28;20429;-73
2021/01/14 07:53:26;;;;;;;13.52;5.38;;;7.20;99.90;;;;;;5012903;28;20042;-77
2021/01/14 07:55:53;;;;;;;15.13;7.35;;;7.20;99.90;;;;;;5010519;28;20038;-73
2021/01/14 07:58:21;;;;;;;10.38;5.97;;;7.20;99.90;;;;;;5011728;28;20025;-73
2021/01/14 08:01:10;;;;;;;18.05;5.85;;;7.30;99.90;;;;;;5011329;28;20488;-74
2021/01/14 08:03:36;;;;;;;11.98;6.07;;;7.30;99.90;;;;;;5011679;28;20050;-74
2021/01/14 08:06:35;;;;;;;15.70;7.32;;;7.40;99.90;;;;;;5011790;28;20030;-74
2021/01/14 08:09:00;;;;;;;10.23;6.10;;;7.50;99.90;;;;;;5011835;28;20382;-74
2021/01/14 08:11:33;;;;;;;8.13;5.70;;;7.50;99.90;;;;;;5007879;28;20029;-74
2021/01/14 08:14:18;;;;;;;7.80;5.50;;;7.50;99.90;;;;;;5008111;28;20486;-74
2021/01/14 08:16:50;;;;;;;10.75;6.20;;;7.50;99.90;;;;;;5006286;28;20461;-74
2021/01/14 08:19:22;;;;;;;19.38;13.38;;;7.50;99.90;;;;;;5006388;28;20030;-74
2021/01/14 08:22:02;;;;;;;14.68;8.43;;;7.80;99.90;;;;;;5008939;28;20038;-75
2021/01/14 08:24:53;;;;;;;18.20;7.97;;;8.10;99.90;;;;;;4996477;28;20022;-74
2021/01/14 08:27:42;;;;;;;20.42;11.32;;;8.50;99.90;;;;;;5010026;28;20022;-75
2021/01/14 08:30:20;;;;;;;20.02;8.40;;;8.70;99.90;;;;;;5007987;28;20025;-74
2021/01/14 08:32:46;;;;;;;10.13;8.27;;;8.70;99.90;;;;;;5011816;28;20031;-74
2021/01/14 08:35:15;;;;;;;10.77;7.40;;;8.90;99.90;;;;;;5014970;28;20022;-76
2021/01/14 08:37:43;;;;;;;10.27;7.50;;;8.90;99.90;;;;;;5011257;28;20026;-73
2021/01/14 08:40:13;;;;;;;20.27;9.65;;;9.10;99.90;;;;;;5011364;28;20022;-74
2021/01/14 08:42:45;;;;;;;12.15;7.82;;;9.40;99.90;;;;;;5013953;28;20040;-74
2021/01/14 08:45:26;;;;;;;13.40;8.27;;;9.50;99.90;;;;;;5009794;28;20026;-74
2021/01/14 08:47:53;;;;;;;15.93;8.43;;;9.50;99.90;;;;;;5011281;28;20057;-75
2021/01/14 08:50:32;;;;;;;12.52;6.32;;;9.50;99.90;;;;;;5007941;28;20280;-73
2021/01/14 08:53:03;;;;;;;16.33;7.93;;;9.50;99.90;;;;;;5018059;28;20556;-73
2021/01/14 08:55:29;;;;;;;18.42;8.32;;;9.60;99.90;;;;;;5017065;28;20030;-73
2021/01/14 08:57:56;;;;;;;11.18;7.10;;;9.80;99.90;;;;;;5018222;28;20596;-76
2021/01/14 09:00:26;;;;;;;18.13;7.60;;;9.80;99.90;;;;;;5006094;28;20039;-73
2021/01/14 09:02:53;;;;;;;10.25;7.57;;;9.80;99.90;;;;;;5012824;28;20040;-72
2021/01/14 09:05:19;;;;;;;10.73;8.13;;;9.80;99.90;;;;;;5011763;28;20027;-72
2021/01/14 09:08:04;;;;;;;15.50;7.88;;;9.80;99.90;;;;;;5008716;28;20073;-72
2021/01/14 09:10:44;;;;;;;14.52;9.30;;;9.80;99.90;;;;;;5012768;28;20041;-73
2021/01/14 09:13:12;;;;;;;12.27;7.70;;;9.80;99.90;;;;;;5013055;28;20018;-71
2021/01/14 09:15:38;;;;;;;19.92;7.97;;;9.50;99.90;;;;;;5018313;28;20048;-74
2021/01/14 09:18:05;;;;;;;13.30;7.68;;;9.60;99.90;;;;;;5017490;28;20042;-71
2021/01/14 09:20:31;;;;;;;17.02;7.85;;;9.70;99.90;;;;;;5016835;28;20120;-73
2021/01/14 09:23:19;;;;;;;11.65;9.00;;;9.70;99.90;;;;;;5009136;28;20037;-72
2021/01/14 09:25:51;;;;;;;26.38;7.40;;;9.80;99.90;;;;;;5008278;28;20030;-72
2021/01/14 09:28:19;;;;;;;14.05;7.35;;;9.80;99.90;;;;;;5015503;28;20100;-72
2021/01/14 09:30:52;;;;;;;14.00;8.77;;;10.00;99.90;;;;;;5015873;28;20033;-71
2021/01/14 09:33:22;;;;;;;18.23;7.82;;;10.10;99.90;;;;;;5018155;28;20171;-72
2021/01/14 09:36:14;;;;;;;11.57;7.05;;;10.00;99.90;;;;;;5015638;28;20026;-71
2021/01/14 09:39:01;;;;;;;14.93;6.88;;;9.90;99.90;;;;;;5017391;28;20022;-72
2021/01/14 09:41:29;;;;;;;14.57;7.80;;;9.80;99.90;;;;;;5012454;28;20629;-72
2021/01/14 09:44:01;;;;;;;18.73;8.52;;;10.10;99.90;;;;;;5014108;28;20029;-71
2021/01/14 09:46:29;;;;;;;16.70;7.88;;;10.20;99.90;;;;;;5014606;28;20069;-72
2021/01/14 09:48:59;;;;;;;12.63;8.02;;;10.20;99.90;;;;;;5014751;28;20045;-72
2021/01/14 09:51:25;;;;;;;11.18;7.45;;;10.10;99.90;;;;;;5012900;28;20107;-72
2021/01/14 09:53:51;;;;;;;14.75;8.13;;;10.30;99.90;;;;;;5015063;28;20091;-71
2021/01/14 09:56:28;;;;;;;14.93;8.27;;;10.10;99.90;;;;;;5010041;28;20457;-72
2021/01/14 09:58:56;;;;;;;13.05;6.70;;;10.20;99.90;;;;;;5014981;28;20079;-72
2021/01/14 10:01:52;;;;;;;15.73;7.63;;;10.20;99.90;;;;;;5012275;28;20029;-73
2021/01/14 10:04:24;;;;;;;13.50;7.95;;;10.40;99.90;;;;;;5011856;28;20017;-71
2021/01/14 10:07:02;;;;;;;12.55;7.13;;;10.50;99.90;;;;;;5013761;28;20026;-72
2021/01/14 10:09:28;;;;;;;16.30;9.55;;;10.60;99.90;;;;;;5014448;28;20033;-72
2021/01/14 10:11:55;;;;;;;14.50;8.68;;;10.70;99.90;;;;;;5013355;28;20390;-72
2021/01/14 10:14:22;;;;;;;11.27;7.50;;;10.70;99.90;;;;;;5014230;28;20567;-73
2021/01/14 10:16:49;;;;;;;16.35;8.48;;;10.60;99.90;;;;;;5013186;28;20049;-72
2021/01/14 10:19:20;;;;;;;10.90;7.18;;;10.80;99.90;;;;;;5014435;28;20030;-71
2021/01/14 10:21:49;;;;;;;15.13;8.55;;;10.80;99.90;;;;;;5011058;28;20026;-72
2021/01/14 10:24:29;;;;;;;12.70;7.55;;;11.00;99.90;;;;;;5013134;28;20018;-71
2021/01/14 10:27:13;;;;;;;13.70;6.63;;;11.00;99.90;;;;;;5006167;28;20028;-72
2021/01/14 10:29:40;;;;;;;19.48;11.82;;;11.20;99.90;;;;;;5011031;28;20160;-72
2021/01/14 10:32:10;;;;;;;10.73;7.45;;;11.30;99.90;;;;;;5008260;28;20038;-72
2021/01/14 10:34:42;;;;;;;12.18;7.15;;;11.50;99.90;;;;;;5011184;28;20030;-72
2021/01/14 10:37:18;;;;;;;17.90;7.93;;;11.60;99.90;;;;;;5012558;28;20080;-72
2021/01/14 10:39:43;;;;;;;14.02;8.02;;;11.70;99.90;;;;;;5012103;28;20034;-72
2021/01/14 10:42:29;;;;;;;10.00;7.53;;;11.70;99.90;;;;;;5013720;28;20048;-72
2021/01/14 10:45:06;;;;;;;9.82;7.10;;;12.00;99.90;;;;;;5012504;28;20034;-72
2021/01/14 10:47:32;;;;;;;12.23;8.40;;;12.00;99.90;;;;;;5013742;28;20025;-72
2021/01/14 10:49:59;;;;;;;7.72;6.28;;;12.20;99.90;;;;;;5009754;28;20387;-72
2021/01/14 10:52:25;;;;;;;15.85;8.80;;;12.30;99.90;;;;;;5012882;28;20025;-71
2021/01/14 10:55:02;;;;;;;15.88;10.90;;;12.30;99.90;;;;;;5006887;28;20030;-72
2021/01/14 10:57:51;;;;;;;16.95;10.35;;;12.20;99.90;;;;;;5006203;28;20105;-72
2021/01/14 11:00:22;;;;;;;24.42;9.38;;;12.30;99.90;;;;;;5006693;28;20125;-72
2021/01/14 11:02:58;;;;;;;18.02;9.65;;;12.30;99.90;;;;;;5014989;28;20079;-73
2021/01/14 11:05:39;;;;;;;14.13;9.73;;;12.30;99.90;;;;;;5006013;28;20535;-73
2021/01/14 11:08:10;;;;;;;27.40;9.32;;;12.00;99.90;;;;;;5012986;28;20022;-74
2021/01/14 11:10:36;;;;;;;19.38;8.68;;;11.60;99.90;;;;;;5011765;28;20171;-72
2021/01/14 11:13:04;;;;;;;12.82;8.15;;;11.30;99.90;;;;;;5015024;28;20461;-72
2021/01/14 11:15:30;;;;;;;11.68;8.73;;;11.30;99.90;;;;;;5012368;28;20505;-72
2021/01/14 11:17:59;;;;;;;22.08;8.65;;;11.30;99.90;;;;;;5013672;28;20026;-72
2021/01/14 11:20:24;;;;;;;12.75;9.02;;;11.30;99.90;;;;;;5011538;28;20025;-72
2021/01/14 11:22:50;;;;;;;20.88;9.57;;;11.20;99.90;;;;;;5012847;28;20037;-72
2021/01/14 11:25:16;;;;;;;18.92;8.90;;;11.30;99.90;;;;;;5013464;28;20091;-72
2021/01/14 11:27:42;;;;;;;17.65;8.27;;;11.50;99.90;;;;;;5012402;28;20108;-72
2021/01/14 11:30:08;;;;;;;15.88;9.93;;;11.50;99.90;;;;;;5012759;28;20076;-72
2021/01/14 11:32:34;;;;;;;9.90;8.38;;;11.40;99.90;;;;;;5013476;28;20030;-71
2021/01/14 11:35:00;;;;;;;14.90;9.55;;;11.30;99.90;;;;;;5013020;28;20022;-72
2021/01/14 11:37:26;;;;;;;18.05;8.75;;;11.20;99.90;;;;;;5012841;28;20025;-72
2021/01/14 11:39:51;;;;;;;14.00;9.23;;;11.30;99.90;;;;;;5012199;28;20058;-71
2021/01/14 11:42:17;;;;;;;12.63;9.23;;;11.20;99.90;;;;;;5015930;28;20128;-71
2021/01/14 11:44:43;;;;;;;13.25;9.18;;;11.50;99.90;;;;;;5013790;28;20516;-72
2021/01/14 11:47:09;;;;;;;11.35;7.82;;;11.60;99.90;;;;;;5014625;28;20029;-72
2021/01/14 11:49:35;;;;;;;12.77;8.68;;;11.70;99.90;;;;;;5011501;28;20026;-72
2021/01/14 11:52:01;;;;;;;8.45;6.45;;;11.80;99.90;;;;;;5012813;28;20490;-72
2021/01/14 11:54:27;;;;;;;11.98;6.63;;;11.90;99.90;;;;;;5010308;28;20036;-72
2021/01/14 11:56:54;;;;;;;12.48;6.00;;;11.80;99.90;;;;;;5012124;28;20500;-72
2021/01/14 11:59:20;;;;;;;7.55;5.68;;;11.90;99.90;;;;;;5012914;28;20018;-72
2021/01/14 12:01:46;;;;;;;12.77;6.50;;;11.90;99.90;;;;;;5011227;28;20036;-72
2021/01/14 12:04:12;;;;;;;5.88;5.30;;;12.00;99.90;;;;;;5010940;28;20029;-72
2021/01/14 12:06:38;;;;;;;9.45;5.72;;;11.80;99.90;;;;;;5011579;28;20022;-72
2021/01/14 12:09:04;;;;;;;5.47;5.03;;;11.60;99.90;;;;;;5011717;28;20441;-72
2021/01/14 12:11:29;;;;;;;6.88;5.03;;;11.60;99.90;;;;;;5012080;28;20494;-72
2021/01/14 12:13:58;;;;;;;8.95;4.93;;;11.60;99.90;;;;;;5012312;28;20034;-72
2021/01/14 12:16:24;;;;;;;12.13;4.65;;;11.50;99.90;;;;;;5012390;28;20057;-73
2021/01/14 12:18:49;;;;;;;6.32;4.43;;;11.60;99.90;;;;;;5011739;28;20514;-72
2021/01/14 12:21:16;;;;;;;8.10;4.07;;;11.60;99.90;;;;;;5012273;28;20048;-72
2021/01/14 12:23:48;;;;;;;5.20;4.00;;;11.70;99.90;;;;;;5012691;28;20111;-72
2021/01/14 12:26:14;;;;;;;7.75;3.92;;;11.60;99.90;;;;;;5009382;28;20121;-72
2021/01/14 12:28:39;;;;;;;5.85;3.92;;;11.60;99.90;;;;;;5011979;28;20517;-72
2021/01/14 12:31:05;;;;;;;6.63;4.88;;;11.80;99.90;;;;;;5010452;28;20477;-72
2021/01/14 12:33:31;;;;;;;5.00;4.28;;;11.90;99.90;;;;;;5012200;28;20025;-73
2021/01/14 12:35:57;;;;;;;11.77;7.35;;;12.00;99.90;;;;;;5007307;28;20029;-72
2021/01/14 12:38:23;;;;;;;13.13;8.63;;;12.00;99.90;;;;;;5012930;28;20082;-72
2021/01/14 12:40:50;;;;;;;17.55;9.52;;;11.80;99.90;;;;;;5010538;28;20041;-73
2021/01/14 12:43:15;;;;;;;15.70;9.05;;;11.80;99.90;;;;;;5011925;28;20037;-72
2021/01/14 12:45:42;;;;;;;10.07;7.43;;;11.80;99.90;;;;;;5012438;28;20030;-73
2021/01/14 12:48:08;;;;;;;6.78;4.70;;;11.90;99.90;;;;;;5010232;28;20026;-73
2021/01/14 12:50:33;;;;;;;13.32;7.18;;;11.70;99.90;;;;;;5011291;28;20033;-72
2021/01/14 12:52:59;;;;;;;13.98;10.95;;;11.70;99.90;;;;;;5013008;28;20022;-72
2021/01/14 12:55:25;;;;;;;15.02;11.18;;;11.40;99.90;;;;;;5008165;28;20026;-72
2021/01/14 12:57:51;;;;;;;17.23;11.50;;;11.00;99.90;;;;;;5000338;28;20034;-73
2021/01/14 13:00:17;;;;;;;14.98;12.15;;;10.80;99.90;;;;;;5002853;28;20025;-71
2021/01/14 13:02:43;;;;;;;13.45;9.05;;;10.80;99.90;;;;;;5011729;28;20029;-72
2021/01/14 13:05:10;;;;;;;18.05;9.30;;;10.80;99.90;;;;;;5012115;28;20034;-75